createdAt,value
2019-01-12T00:00:12.484Z,68.30
2019-01-12T00:02:39.728Z,94.80
2019-01-12T00:05:07.383Z,91.77
2019-01-12T00:07:34.637Z,88.50
2019-01-12T00:10:02.193Z,86.07
2019-01-12T00:12:29.878Z,76.63
2019-01-12T00:14:57.109Z,95.90
2019-01-12T00:17:24.389Z,109.73
2019-01-12T00:19:51.939Z,110.17
2019-01-12T00:22:19.225Z,84.97
2019-01-12T00:24:46.509Z,80.30
2019-01-12T00:27:13.749Z,111.63
2019-01-12T00:29:41.337Z,85.40
2019-01-12T00:32:08.913Z,111.53
2019-01-12T00:34:36.189Z,79.70
2019-01-12T00:37:03.425Z,112.20
2019-01-12T00:39:30.959Z,115.73
2019-01-12T00:41:58.292Z,76.67
2019-01-12T00:44:26.173Z,101.33
2019-01-12T00:46:54.141Z,85.47
2019-01-12T00:49:21.397Z,100.00
2019-01-12T00:51:48.628Z,79.63
2019-01-12T00:54:16.513Z,97.50
2019-01-12T00:56:43.748Z,98.03
2019-01-12T00:59:11.025Z,92.13
2019-01-12T01:01:38.341Z,101.87
2019-01-12T01:04:05.595Z,79.77
2019-01-12T01:06:33.177Z,77.07
2019-01-12T01:09:00.438Z,97.43
2019-01-12T01:11:27.677Z,76.73
2019-01-12T01:13:55.242Z,88.43
2019-01-12T01:16:22.485Z,89.60
2019-01-12T01:18:49.772Z,97.37
2019-01-12T01:21:17.217Z,71.47
2019-01-12T01:23:44.760Z,68.70
2019-01-12T01:26:12.001Z,67.20
2019-01-12T01:28:39.260Z,73.40
2019-01-12T01:31:06.821Z,54.43
2019-01-12T01:33:34.072Z,60.03
2019-01-12T01:36:01.633Z,68.10
2019-01-12T01:38:28.893Z,82.33
2019-01-12T01:40:56.549Z,59.33
2019-01-12T01:43:23.849Z,76.17
2019-01-12T01:45:51.140Z,57.50
2019-01-12T01:48:18.709Z,58.37
2019-01-12T01:50:45.936Z,63.47
2019-01-12T01:53:13.521Z,62.57
2019-01-12T01:55:41.488Z,76.77
2019-01-12T01:58:09.076Z,72.33
2019-01-12T02:00:36.600Z,72.90
2019-01-12T02:03:03.841Z,57.47
2019-01-12T02:05:31.111Z,79.00
2019-01-12T02:07:58.349Z,68.60
2019-01-12T02:10:25.921Z,84.93
2019-01-12T02:12:53.472Z,78.63
2019-01-12T02:15:21.446Z,68.07
2019-01-12T02:17:49.008Z,67.50
2019-01-12T02:20:16.356Z,59.57
2019-01-12T02:22:43.925Z,68.17
2019-01-12T02:25:11.393Z,131.80
2019-01-12T02:27:38.724Z,85.70
2019-01-12T02:30:09.993Z,72.33
2019-01-12T02:32:37.322Z,102.03
2019-01-12T02:35:04.722Z,74.20
2019-01-12T02:37:31.957Z,68.83
2019-01-12T02:39:59.312Z,80.30
2019-01-12T02:42:26.850Z,86.07
2019-01-12T02:44:54.114Z,85.10
2019-01-12T02:47:21.436Z,74.90
2019-01-12T02:49:48.697Z,55.53
2019-01-12T02:52:16.260Z,108.67
2019-01-12T02:54:43.525Z,71.63
2019-01-12T02:57:11.069Z,102.20
2019-01-12T02:59:38.336Z,77.93
2019-01-12T03:02:05.582Z,78.33
2019-01-12T03:04:33.140Z,67.73
2019-01-12T03:07:00.381Z,69.53
2019-01-12T03:09:27.645Z,84.87
2019-01-12T03:11:54.882Z,60.50
2019-01-12T03:14:22.141Z,70.70
2019-01-12T03:16:49.394Z,73.00
2019-01-12T03:19:16.629Z,64.07
2019-01-12T03:21:44.594Z,69.97
2019-01-12T03:24:12.009Z,63.73
2019-01-12T03:26:39.287Z,84.80
2019-01-12T03:29:06.609Z,85.50
2019-01-12T03:31:34.155Z,96.47
2019-01-12T03:34:02.106Z,83.90
2019-01-12T03:36:29.400Z,103.53
2019-01-12T03:38:56.716Z,70.27
2019-01-12T03:41:24.293Z,127.00
2019-01-12T03:43:51.863Z,69.13
2019-01-12T03:46:19.214Z,125.57
2019-01-12T03:48:46.445Z,143.93
2019-01-12T03:51:13.701Z,99.73
2019-01-12T03:53:40.937Z,97.63
2019-01-12T03:56:08.201Z,115.40
2019-01-12T03:58:35.437Z,84.93
2019-01-12T04:01:02.799Z,99.17
2019-01-12T04:03:30.133Z,86.30
2019-01-12T04:05:57.914Z,163.43
2019-01-12T04:08:25.369Z,117.07
2019-01-12T04:10:52.629Z,125.27
2019-01-12T04:13:19.867Z,149.47
2019-01-12T04:15:47.132Z,122.50
2019-01-12T04:18:14.384Z,151.77
2019-01-12T04:20:41.647Z,88.63
2019-01-12T04:23:08.986Z,168.43
2019-01-12T04:25:36.251Z,118.27
2019-01-12T04:28:03.899Z,83.40
2019-01-12T04:30:31.156Z,87.57
2019-01-12T04:32:58.391Z,60.57
2019-01-12T04:35:26.085Z,133.17
2019-01-12T04:37:53.611Z,91.73
2019-01-12T04:40:20.838Z,97.60
2019-01-12T04:42:48.155Z,69.03
2019-01-12T04:45:15.788Z,76.77
2019-01-12T04:47:43.145Z,76.03
2019-01-12T04:50:12.706Z,85.97
2019-01-12T04:52:40.065Z,70.93
2019-01-12T04:55:07.647Z,78.80
2019-01-12T04:57:34.993Z,72.73
2019-01-12T05:00:03.516Z,65.33
2019-01-12T05:02:30.769Z,70.80
2019-01-12T05:04:58.386Z,65.07
2019-01-12T05:07:25.966Z,68.40
2019-01-12T05:09:53.192Z,72.87
2019-01-12T05:12:20.457Z,77.03
2019-01-12T05:14:47.930Z,64.57
2019-01-12T05:17:15.276Z,68.97
2019-01-12T05:19:42.855Z,71.23
2019-01-12T05:22:10.281Z,93.10
2019-01-12T05:24:37.857Z,62.97
2019-01-12T05:27:05.113Z,58.20
2019-01-12T05:29:32.344Z,65.97
2019-01-12T05:31:59.934Z,109.37
2019-01-12T05:34:27.169Z,82.83
2019-01-12T05:36:54.427Z,94.00
2019-01-12T05:39:21.661Z,54.83
2019-01-12T05:41:49.248Z,124.13
2019-01-12T05:44:16.576Z,102.90
2019-01-12T05:46:44.165Z,89.50
2019-01-12T05:49:11.400Z,93.77
2019-01-12T05:51:38.973Z,110.67
2019-01-12T05:54:06.537Z,94.87
2019-01-12T05:56:33.796Z,84.23
2019-01-12T05:59:01.078Z,128.47
2019-01-12T06:01:28.338Z,87.93
2019-01-12T06:03:55.592Z,76.47
2019-01-12T06:06:23.129Z,87.70
2019-01-12T06:08:50.653Z,68.17
2019-01-12T06:11:17.906Z,78.47
2019-01-12T06:13:45.449Z,85.47
2019-01-12T06:16:12.697Z,105.53
2019-01-12T06:18:40.262Z,81.77
2019-01-12T06:21:07.497Z,95.27
2019-01-12T06:23:35.069Z,95.80
2019-01-12T06:26:04.050Z,83.03
2019-01-12T06:28:31.469Z,79.63
2019-01-12T06:30:58.977Z,78.73
2019-01-12T06:33:26.643Z,76.97
2019-01-12T06:35:54.199Z,66.63
2019-01-12T06:38:22.704Z,76.00
2019-01-12T06:40:50.117Z,84.80
2019-01-12T06:43:17.693Z,67.00
2019-01-12T06:45:44.941Z,87.33
2019-01-12T06:48:12.210Z,77.40
2019-01-12T06:50:39.761Z,90.77
2019-01-12T06:53:07.720Z,113.43
2019-01-12T06:55:34.948Z,79.20
2019-01-12T06:58:03.356Z,68.20
2019-01-12T07:00:30.902Z,77.17
2019-01-12T07:02:59.116Z,65.97
2019-01-12T07:05:27.571Z,78.20
2019-01-12T07:07:55.121Z,65.73
2019-01-12T07:10:22.356Z,66.10
2019-01-12T07:12:49.706Z,76.87
2019-01-12T07:15:17.309Z,64.63
2019-01-12T07:17:44.969Z,68.50
2019-01-12T07:20:21.057Z,70.93
2019-01-12T07:22:49.010Z,74.17
2019-01-12T07:25:16.344Z,77.00
2019-01-12T07:27:43.894Z,70.63
2019-01-12T07:30:14.561Z,67.37
2019-01-12T07:32:42.189Z,66.47
2019-01-12T07:35:09.444Z,71.70
2019-01-12T07:37:37.002Z,59.60
2019-01-12T07:40:05.380Z,54.10
2019-01-12T07:42:32.657Z,63.63
2019-01-12T07:45:00.238Z,74.70
2019-01-12T07:47:27.561Z,58.50
2019-01-12T07:49:54.809Z,55.17
2019-01-12T07:52:22.349Z,53.67
2019-01-12T07:54:49.925Z,61.53
2019-01-12T07:57:17.694Z,54.27
2019-01-12T07:59:45.537Z,51.73
2019-01-12T08:02:12.813Z,45.00
2019-01-12T08:04:40.085Z,46.17
2019-01-12T08:07:07.725Z,40.00
2019-01-12T08:09:35.077Z,38.83
2019-01-12T08:12:02.418Z,43.17
2019-01-12T08:14:29.690Z,47.77
2019-01-12T08:16:56.929Z,50.73
2019-01-12T08:19:24.197Z,39.73
2019-01-12T08:21:51.443Z,39.70
2019-01-12T08:24:18.716Z,38.07
2019-01-12T08:26:46.233Z,36.30
2019-01-12T08:29:14.248Z,34.43
2019-01-12T08:31:41.581Z,35.70
2019-01-12T08:34:08.845Z,33.60
2019-01-12T08:36:36.080Z,31.93
2019-01-12T08:39:05.653Z,31.23
2019-01-12T08:41:32.889Z,27.73
2019-01-12T08:44:00.390Z,28.57
2019-01-12T08:46:28.337Z,28.27
2019-01-12T08:48:55.653Z,28.43
2019-01-12T08:51:22.992Z,28.07
2019-01-12T08:53:51.438Z,26.27
2019-01-12T08:56:18.685Z,23.90
2019-01-12T08:58:45.951Z,24.57
2019-01-12T09:01:13.213Z,23.97
2019-01-12T09:03:40.493Z,21.30
2019-01-12T09:06:07.740Z,20.83
2019-01-12T09:08:35.345Z,20.33
2019-01-12T09:11:02.693Z,23.70
2019-01-12T09:13:30.085Z,27.33
2019-01-12T09:15:57.317Z,24.23
2019-01-12T09:18:24.655Z,28.07
2019-01-12T09:20:51.897Z,24.27
2019-01-12T09:23:19.171Z,25.80
2019-01-12T09:25:46.740Z,27.77
2019-01-12T09:28:14.508Z,21.43
2019-01-12T09:30:48.462Z,22.73
2019-01-12T09:33:11.868Z,19.97
2019-01-12T09:35:39.154Z,20.97
2019-01-12T09:38:06.468Z,20.87
2019-01-12T09:40:33.717Z,20.53
2019-01-12T09:43:01.831Z,19.17
2019-01-12T09:45:29.422Z,22.93
2019-01-12T09:47:57.628Z,18.50
2019-01-12T09:50:25.490Z,18.83
2019-01-12T09:52:52.776Z,21.57
2019-01-12T09:55:20.403Z,18.33
2019-01-12T09:57:47.664Z,19.27
2019-01-12T10:00:17.558Z,22.67
2019-01-12T10:02:44.894Z,24.53
2019-01-12T10:05:12.785Z,24.53
2019-01-12T10:07:40.344Z,23.30
2019-01-12T10:10:10.547Z,24.33
2019-01-12T10:12:37.796Z,25.73
2019-01-12T10:15:06.225Z,24.97
2019-01-12T10:17:33.468Z,31.10
2019-01-12T10:20:01.105Z,29.93
2019-01-12T10:22:28.784Z,29.57
2019-01-12T10:24:56.433Z,30.47
2019-01-12T10:27:23.684Z,25.57
2019-01-12T10:29:50.952Z,28.40
2019-01-12T10:32:18.198Z,29.43
2019-01-12T10:34:45.850Z,29.90
2019-01-12T10:37:13.409Z,32.53
2019-01-12T10:39:40.965Z,28.30
2019-01-12T10:42:08.525Z,29.70
2019-01-12T10:44:35.800Z,28.37
2019-01-12T10:47:03.542Z,31.33
2019-01-12T10:49:30.820Z,35.87
2019-01-12T10:51:58.069Z,32.03
2019-01-12T10:54:25.708Z,30.47
2019-01-12T10:56:53.270Z,36.13
2019-01-12T10:59:21.104Z,36.03
2019-01-12T11:01:48.432Z,37.67
2019-01-12T11:04:17.043Z,37.13
2019-01-12T11:06:44.733Z,14.17
2019-01-12T11:09:12.100Z,20.43
2019-01-12T11:11:39.350Z,26.20
2019-01-12T11:14:07.528Z,26.37
2019-01-12T11:16:35.257Z,33.13
2019-01-12T11:19:03.179Z,20.67
2019-01-12T11:21:33.248Z,15.93
2019-01-12T11:24:00.820Z,18.03
2019-01-12T11:26:28.068Z,27.93
2019-01-12T11:28:55.332Z,32.47
2019-01-12T11:31:22.581Z,34.80
2019-01-12T11:33:50.107Z,33.57
2019-01-12T11:36:17.353Z,36.10
2019-01-12T11:38:45.353Z,37.57
2019-01-12T11:41:12.618Z,34.73
2019-01-12T11:43:40.165Z,42.60
2019-01-12T11:46:07.456Z,36.90
2019-01-12T11:48:34.928Z,41.63
2019-01-12T11:51:12.461Z,36.67
2019-01-12T11:53:39.695Z,43.27
2019-01-12T11:56:06.997Z,37.57
2019-01-12T11:58:34.525Z,28.33
2019-01-12T12:01:02.666Z,31.03
2019-01-12T12:03:30.404Z,32.23
2019-01-12T12:05:58.463Z,20.93
2019-01-12T12:08:26.721Z,20.63
2019-01-12T12:10:55.708Z,21.90
2019-01-12T12:13:23.034Z,19.57
2019-01-12T12:15:50.328Z,23.97
2019-01-12T12:18:17.574Z,21.80
2019-01-12T12:20:44.861Z,28.33
2019-01-12T12:23:12.109Z,33.83
2019-01-12T12:25:39.725Z,37.03
2019-01-12T12:28:07.286Z,39.93
2019-01-12T12:30:34.582Z,37.57
2019-01-12T12:33:02.140Z,41.30
2019-01-12T12:35:29.753Z,42.63
2019-01-12T12:37:56.995Z,42.33
2019-01-12T12:40:25.162Z,40.50
2019-01-12T12:42:52.405Z,43.07
2019-01-12T12:45:30.901Z,45.53
2019-01-12T12:47:58.138Z,40.60
2019-01-12T12:50:25.966Z,39.80
2019-01-12T12:52:53.540Z,30.40
2019-01-12T12:55:21.409Z,36.57
2019-01-12T12:57:48.845Z,37.33
2019-01-12T13:00:18.849Z,32.37
2019-01-12T13:02:46.114Z,32.80
2019-01-12T13:05:13.453Z,30.17
2019-01-12T13:07:40.756Z,30.80
2019-01-12T13:10:12.089Z,34.50
2019-01-12T13:12:39.733Z,33.90
2019-01-12T13:15:07.288Z,30.47
2019-01-12T13:17:34.583Z,32.33
2019-01-12T13:20:01.834Z,45.17
2019-01-12T13:22:29.213Z,31.90
2019-01-12T13:24:56.454Z,39.43
2019-01-12T13:27:24.061Z,33.90
2019-01-12T13:29:51.305Z,30.83
2019-01-12T13:32:18.649Z,36.83
2019-01-12T13:34:46.248Z,38.33
2019-01-12T13:37:13.535Z,43.60
2019-01-12T13:39:41.449Z,43.07
2019-01-12T13:42:08.962Z,40.27
2019-01-12T13:44:36.301Z,46.63
2019-01-12T13:47:03.686Z,41.23
2019-01-12T13:49:31.004Z,41.93
2019-01-12T13:51:58.333Z,43.87
2019-01-12T13:54:26.849Z,41.57
2019-01-12T13:56:54.144Z,43.13
2019-01-12T13:59:21.398Z,43.43
2019-01-12T14:01:48.703Z,43.30
2019-01-12T14:04:15.941Z,38.47
2019-01-12T14:06:43.240Z,37.93
2019-01-12T14:09:10.489Z,41.83
2019-01-12T14:11:37.789Z,43.77
2019-01-12T14:14:05.028Z,37.30
2019-01-12T14:16:32.686Z,34.87
2019-01-12T14:19:00.024Z,39.00
2019-01-12T14:21:27.312Z,35.97
2019-01-12T14:23:54.557Z,39.90
2019-01-12T14:26:21.802Z,32.40
2019-01-12T14:28:49.101Z,32.63
2019-01-12T14:31:16.397Z,35.00
2019-01-12T14:33:43.968Z,39.30
2019-01-12T14:36:11.513Z,31.83
2019-01-12T14:38:39.073Z,37.97
2019-01-12T14:41:06.313Z,30.40
2019-01-12T14:43:33.615Z,35.23
2019-01-12T14:46:00.997Z,36.50
2019-01-12T14:48:28.393Z,33.10
2019-01-12T14:50:55.965Z,32.90
2019-01-12T14:53:23.262Z,35.60
2019-01-12T14:55:50.858Z,29.73
2019-01-12T14:58:18.197Z,34.20
2019-01-12T15:00:45.445Z,36.07
2019-01-12T15:03:12.836Z,39.80
2019-01-12T15:05:40.602Z,36.77
2019-01-12T15:08:07.985Z,36.23
2019-01-12T15:10:35.299Z,34.43
2019-01-12T15:13:03.012Z,31.80
2019-01-12T15:15:30.256Z,32.83
2019-01-12T15:17:57.869Z,30.60
2019-01-12T15:20:27.324Z,32.23
2019-01-12T15:22:54.924Z,35.17
2019-01-12T15:25:30.480Z,35.10
2019-01-12T15:27:58.191Z,27.77
2019-01-12T15:30:30.239Z,26.60
2019-01-12T15:32:58.587Z,27.13
2019-01-12T15:35:28.409Z,31.97
2019-01-12T15:37:55.705Z,30.07
2019-01-12T15:40:22.939Z,28.47
2019-01-12T15:42:55.612Z,24.60
2019-01-12T15:45:27.536Z,33.40
2019-01-12T15:47:55.336Z,25.60
2019-01-12T15:50:26.708Z,23.63
2019-01-12T15:52:54.409Z,25.67
2019-01-12T15:55:22.173Z,23.07
2019-01-12T15:57:50.069Z,24.87
2019-01-12T16:00:23.422Z,24.63
2019-01-12T16:02:51.046Z,26.60
2019-01-12T16:05:18.624Z,29.07
2019-01-12T16:07:47.417Z,25.07
2019-01-12T16:10:15.522Z,21.77
2019-01-12T16:12:43.000Z,23.23
2019-01-12T16:15:13.397Z,24.27
2019-01-12T16:17:40.689Z,21.57
2019-01-12T16:20:17.227Z,18.33
2019-01-12T16:22:44.829Z,21.70
2019-01-12T16:25:12.845Z,15.83
2019-01-12T16:27:40.140Z,20.03
2019-01-12T16:30:11.771Z,14.80
2019-01-12T16:32:39.228Z,17.77
2019-01-12T16:35:06.808Z,15.97
2019-01-12T16:37:34.195Z,15.57
2019-01-12T16:40:01.872Z,16.97
2019-01-12T16:42:31.808Z,13.37
2019-01-12T16:44:59.360Z,16.67
2019-01-12T16:47:26.600Z,15.63
2019-01-12T16:49:53.881Z,12.27
2019-01-12T16:52:21.970Z,12.30
2019-01-12T16:54:49.249Z,17.63
2019-01-12T16:57:16.871Z,11.47
2019-01-12T16:59:44.717Z,16.23
2019-01-12T17:02:12.004Z,16.43
2019-01-12T17:04:39.629Z,14.33
2019-01-12T17:07:06.866Z,18.10
2019-01-12T17:09:34.157Z,16.63
2019-01-12T17:12:01.396Z,14.90
2019-01-12T17:14:28.689Z,13.27
2019-01-12T17:16:56.261Z,12.37
2019-01-12T17:19:23.545Z,13.30
2019-01-12T17:21:51.051Z,12.03
2019-01-12T17:24:18.689Z,15.57
2019-01-12T17:26:46.283Z,12.73
2019-01-12T17:29:17.953Z,14.27
2019-01-12T17:31:44.348Z,12.67
2019-01-12T17:34:11.645Z,11.70
2019-01-12T17:36:40.249Z,15.47
2019-01-12T17:39:09.616Z,14.77
2019-01-12T17:41:38.562Z,13.40
2019-01-12T17:44:20.818Z,11.30
2019-01-12T17:46:48.611Z,12.60
2019-01-12T17:49:24.500Z,14.50
2019-01-12T17:52:12.516Z,10.13
2019-01-12T17:54:32.093Z,14.10
2019-01-12T17:56:59.824Z,12.70
2019-01-12T17:59:28.640Z,21.43
2019-01-12T18:01:55.960Z,14.27
2019-01-12T18:04:23.872Z,12.90
2019-01-12T18:06:51.683Z,10.37
2019-01-12T18:09:21.515Z,15.00
2019-01-12T18:11:49.111Z,11.37
2019-01-12T18:14:16.896Z,11.53
2019-01-12T18:16:44.794Z,10.03
2019-01-12T18:19:14.038Z,10.43
2019-01-12T18:21:42.153Z,12.50
2019-01-12T18:24:10.306Z,12.83
2019-01-12T18:26:37.922Z,12.60
2019-01-12T18:29:05.239Z,11.90
2019-01-12T18:31:32.863Z,10.37
2019-01-12T18:34:00.505Z,11.00
2019-01-12T18:36:28.057Z,18.03
2019-01-12T18:38:55.361Z,18.37
2019-01-12T18:41:22.884Z,16.73
2019-01-12T18:43:50.833Z,14.40
2019-01-12T18:46:18.123Z,13.80
2019-01-12T18:48:46.038Z,13.97
2019-01-12T18:51:13.498Z,16.20
2019-01-12T18:56:09.214Z,16.50
2019-01-12T18:58:36.462Z,13.00
2019-01-12T19:01:04.806Z,13.63
2019-01-12T19:03:32.149Z,11.47
2019-01-12T19:05:59.789Z,12.10
2019-01-12T19:08:27.025Z,16.97
2019-01-12T19:10:54.413Z,12.63
2019-01-12T19:13:21.663Z,12.70
2019-01-12T19:15:49.309Z,10.97
2019-01-12T19:18:16.615Z,18.07
2019-01-12T19:20:43.929Z,12.70
2019-01-12T19:23:11.166Z,10.27
2019-01-12T19:25:39.137Z,10.50
2019-01-12T19:28:06.371Z,9.33
2019-01-12T19:30:33.682Z,10.67
2019-01-12T19:33:01.505Z,11.73
2019-01-12T19:35:28.800Z,9.00
2019-01-12T19:37:56.420Z,8.40
2019-01-12T19:40:24.910Z,8.87
2019-01-12T19:42:52.457Z,8.33
2019-01-12T19:45:19.748Z,9.20
2019-01-12T19:47:47.379Z,7.37
2019-01-12T19:50:19.954Z,7.30
2019-01-12T19:52:47.510Z,8.03
2019-01-12T19:55:14.953Z,6.40
2019-01-12T19:57:43.533Z,7.97
2019-01-12T20:00:15.253Z,7.17
2019-01-12T20:02:56.196Z,6.77
2019-01-12T20:05:44.964Z,8.03
2019-01-12T20:08:13.116Z,8.67
2019-01-12T20:10:41.777Z,8.37
2019-01-12T20:13:09.907Z,6.47
2019-01-12T20:15:42.225Z,8.50
2019-01-12T20:18:09.956Z,7.03
2019-01-12T20:20:37.821Z,6.93
2019-01-12T20:23:05.133Z,5.73
2019-01-12T20:25:32.686Z,7.73
2019-01-12T20:28:36.703Z,7.57
2019-01-12T20:31:36.800Z,6.43
2019-01-12T20:34:41.156Z,6.93
2019-01-12T20:37:52.065Z,9.10
2019-01-12T20:41:10.640Z,5.83
2019-01-12T20:44:26.005Z,8.00
2019-01-12T20:47:34.929Z,6.57
2019-01-12T20:50:11.912Z,6.87
2019-01-12T20:53:22.097Z,6.67
2019-01-12T20:56:15.687Z,9.17
2019-01-12T20:59:28.155Z,7.07
2019-01-12T21:02:44.489Z,8.47
2019-01-12T21:05:24.210Z,9.57
2019-01-12T21:08:41.234Z,7.20
2019-01-12T21:11:15.677Z,8.87
2019-01-12T21:14:00.437Z,8.07
2019-01-12T21:16:38.246Z,9.13
2019-01-12T21:19:07.120Z,8.67
2019-01-12T21:21:35.496Z,6.57
2019-01-12T21:24:07.932Z,10.37
2019-01-12T21:26:38.246Z,8.33
2019-01-12T21:29:08.316Z,9.13
2019-01-12T21:31:36.816Z,7.80
2019-01-12T21:34:05.622Z,9.00
2019-01-12T21:36:34.233Z,8.00
2019-01-12T21:39:02.094Z,9.30
2019-01-12T21:41:29.735Z,8.80
2019-01-12T21:44:06.521Z,7.83
2019-01-12T21:46:35.959Z,6.73
2019-01-12T21:49:03.869Z,8.77
2019-01-12T21:51:31.729Z,7.93
2019-01-12T21:53:59.469Z,10.53
2019-01-12T21:56:27.033Z,9.17
2019-01-12T21:58:54.996Z,8.67
2019-01-12T22:01:23.590Z,8.90
2019-01-12T22:03:52.461Z,10.20
2019-01-12T22:06:20.269Z,10.23
2019-01-12T22:08:50.292Z,10.97
2019-01-12T22:11:22.407Z,11.40
2019-01-12T22:13:52.115Z,12.63
2019-01-12T22:16:26.844Z,12.53
2019-01-12T22:18:54.533Z,11.53
2019-01-12T22:21:23.279Z,12.30
2019-01-12T22:23:50.662Z,11.70
2019-01-12T22:26:18.343Z,13.17
2019-01-12T22:28:45.509Z,12.23
2019-01-12T22:31:12.804Z,12.50
2019-01-12T22:33:41.688Z,12.10
2019-01-12T22:36:20.323Z,11.80
2019-01-12T22:38:58.926Z,11.97
2019-01-12T22:41:28.636Z,10.37
2019-01-12T22:44:06.829Z,13.00
2019-01-12T22:46:41.470Z,10.47
2019-01-12T22:49:17.536Z,10.23
2019-01-12T22:51:47.990Z,9.73
2019-01-12T22:54:16.377Z,11.03
2019-01-12T22:57:01.175Z,10.17
2019-01-12T22:59:45.688Z,10.80
2019-01-12T23:02:17.999Z,9.33
2019-01-12T23:04:48.248Z,10.07
2019-01-12T23:07:37.532Z,11.53
2019-01-12T23:10:05.365Z,13.37
2019-01-12T23:12:32.620Z,13.40
2019-01-12T23:14:59.856Z,16.33
2019-01-12T23:17:27.097Z,14.07
2019-01-12T23:19:54.268Z,15.53
2019-01-12T23:22:21.964Z,14.93
2019-01-12T23:24:52.770Z,16.37
2019-01-12T23:27:20.013Z,18.17
2019-01-12T23:29:47.634Z,18.93
2019-01-12T23:32:15.009Z,18.33
2019-01-12T23:34:43.956Z,16.63
2019-01-12T23:37:11.854Z,18.90
2019-01-12T23:39:39.286Z,17.17
2019-01-12T23:42:06.838Z,18.57
2019-01-12T23:44:34.101Z,17.67
2019-01-12T23:47:01.349Z,14.80
2019-01-12T23:49:28.618Z,14.03
2019-01-12T23:51:55.862Z,13.30
2019-01-12T23:54:23.117Z,14.93
2019-01-12T23:56:50.268Z,15.77
2019-01-12T23:59:17.534Z,16.07
